CYOD

CFB Cold Lake Airport

Cold Lake, Alberta, Canada
METAR CYOD 221400Z 09004KT 15SM BKN180 M02/M05 A3023 RMK AC7 VIRGA SLP266
Observed Flight Rules
Sep-22 @ 14:00 UTC (60 minutes ago) Visual Flight Rules
Wind Visibility Clouds
90° at 4 knots 15 miles
Temperatures Readings
Current -2°C / 28°F
Dewpoint -5°C / 23°F
Humidity 80%
Altimeter 30.23" Hg
Pressure 1026.6 hPa
Elevation 544
METAR CYOD 221400Z 09004KT 15SM BKN180 M02/M05 A3023 RMK AC7 VIRGA SLP266
Observed Flight Rules
Sep-22 @ 14:00 UTC
(60 minutes ago)
VFR
Wind Visibility
90° at 4 knots 15 miles
Clouds
Temperature Dewpoint
-2°C / 28°F -5°C / 23°F
Humidity Altimeter Pressure
80% 30.23" Hg 1026.6 hPa